Imke — PHGG — position and weather

sailwx.info

Track history (hours):
 
Tides and Currents Weather Stations Pressure Air Temp Water Temp Dewpoint Dewpoint Depression Visibility Wind Speed Wind Dir Waves Ship Positions

Imke

Last reported at 2017-Dec-17 03:34 UTC. Time now 2017-Dec-17 19:55 UTC.
Position N 60°02' E 019°16'.

Length 112 m; draft 6.2 m.

Type: Cargo ship. MMSI: 246535000.

Date/timePositionNaut miles runAvg speedWind from/ knotsBaromVisibWave heightAir tempDewpointWater temp
2017-Dec-17 03:34N 60°02' E 019°16'110.5
2017-Dec-17 03:30N 60°02' E 019°15'510.6
2017-Dec-17 03:00N 60°06' E 019°08'610.5
2017-Dec-17 02:27N 60°11' E 019°01'510.5
2017-Dec-17 02:00N 60°16' E 019°00'610.4
2017-Dec-17 01:26N 60°22' E 018°60'  
2017-Dec-10 17:44N 60°24' E 019°02'210.7
2017-Dec-10 17:30N 60°22' E 019°01'510.6
2017-Dec-10 17:00N 60°16' E 019°02'510.7
2017-Dec-10 16:30N 60°11' E 019°06'510.8
2017-Dec-10 16:00N 60°07' E 019°13'510.7
2017-Dec-10 15:30N 60°03' E 019°20'510.8
2017-Dec-10 15:00N 59°59' E 019°27'510.7
2017-Dec-10 14:30N 59°55' E 019°34'610.8
2017-Dec-10 13:59N 59°50' E 019°41'250 9.9
2017-Dec-09 12:36N 56°00' E 016°35'210.6
2017-Dec-09 12:23N 55°59' E 016°32'410.6
2017-Dec-09 12:00N 55°57' E 016°25'510.3
2017-Dec-09 11:31N 55°55' E 016°17'510.3
2017-Dec-09 11:01N 55°52' E 016°09'510.3
2017-Dec-09 10:31N 55°50' E 016°01'510.4
2017-Dec-09 10:00N 55°47' E 015°53'510.5
2017-Dec-09 09:31N 55°44' E 015°45'510.5
2017-Dec-09 09:01N 55°42' E 015°37'510.6
2017-Dec-09 08:31N 55°39' E 015°29'510.5
2017-Dec-09 08:01N 55°37' E 015°21'1110.6
2017-Dec-09 06:58N 55°31' E 015°04'1610.6
2017-Dec-09 05:27N 55°24' E 014°39'510.4
2017-Dec-09 04:59N 55°20' E 014°33'610.3
2017-Dec-09 04:23N 55°15' E 014°26'410.3
2017-Dec-09 03:59N 55°12' E 014°21'1310.7
2017-Dec-09 02:47N 55°11' E 013°59'2210.6
2017-Dec-09 00:41N 55°13' E 013°20'211.0
2017-Dec-09 00:29N 55°13' E 013°17'510.9
2017-Dec-09 00:00N 55°14' E 013°07'511.0
2017-Dec-08 23:30N 55°14' E 012°58'510.9
2017-Dec-08 23:00N 55°16' E 012°48'511.0
2017-Dec-08 22:30N 55°17' E 012°39'510.9
2017-Dec-08 22:01N 55°19' E 012°30'2 3.1
2017-Dec-08 21:29N 55°19' E 012°27'0 0.0
2017-Dec-08 20:59N 55°19' E 012°27'0 0.0
2017-Dec-08 20:29N 55°19' E 012°27'0 0.0
2017-Dec-08 19:56N 55°19' E 012°27'0 0.0
2017-Dec-08 19:05N 55°19' E 012°27'0 0.0
2017-Dec-08 18:59N 55°19' E 012°27'0 0.0
2017-Dec-08 18:23N 55°19' E 012°27'0 0.0
2017-Dec-08 17:59N 55°19' E 012°27'0 0.0
2017-Dec-08 17:23N 55°19' E 012°27'0 0.0
2017-Dec-08 16:47N 55°19' E 012°27'0 0.0
2017-Dec-08 16:26N 55°19' E 012°27'0 0.0
2017-Dec-08 15:59N 55°19' E 012°27'0 0.0
2017-Dec-08 15:23N 55°19' E 012°27'0 0.0
2017-Dec-08 14:59N 55°19' E 012°27'0 0.0
2017-Dec-08 14:26N 55°19' E 012°27'0 0.0
2017-Dec-08 13:59N 55°19' E 012°27'0 0.0
2017-Dec-08 13:17N 55°19' E 012°27'0 0.0
2017-Dec-08 12:59N 55°19' E 012°27'0 0.0
2017-Dec-08 12:29N 55°19' E 012°27'0 0.0
2017-Dec-08 11:59N 55°19' E 012°27'0 0.0
2017-Dec-08 11:30N 55°19' E 012°27'0 0.0
2017-Dec-08 11:00N 55°19' E 012°27'0 0.0
2017-Dec-08 10:29N 55°19' E 012°27'0 0.0
2017-Dec-08 10:00N 55°19' E 012°27'0 0.0
2017-Dec-08 09:30N 55°19' E 012°27'0 0.0
2017-Dec-08 09:00N 55°19' E 012°27'0 0.0
2017-Dec-08 08:30N 55°19' E 012°27'0 0.0
2017-Dec-08 08:00N 55°19' E 012°27'0 0.0
2017-Dec-08 07:30N 55°19' E 012°27'0 0.3
2017-Dec-08 07:00N 55°19' E 012°28'1 2.8
2017-Dec-08 06:30N 55°20' E 012°29'3 5.1
2017-Dec-08 06:00N 55°23' E 012°32'3 6.1
2017-Dec-08 05:30N 55°25' E 012°35'3 6.6
2017-Dec-08 05:00N 55°28' E 012°38'4 8.2
2017-Dec-08 04:30N 55°31' E 012°42'4 8.5
2017-Dec-08 04:00N 55°36' E 012°42'5 9.7
2017-Dec-08 03:30N 55°40' E 012°41'4 8.6
2017-Dec-08 03:00N 55°45' E 012°41'4 7.9
2017-Dec-08 02:30N 55°49' E 012°42'4 8.4
2017-Dec-08 02:00N 55°53' E 012°40'4 7.9
2017-Dec-08 01:30N 55°57' E 012°39'4 7.9
2017-Dec-08 01:00N 56°00' E 012°40'4 8.4
2017-Dec-08 00:30N 56°04' E 012°37'5 9.4
2017-Dec-08 00:00N 56°07' E 012°30'4 8.9
2017-Dec-07 23:30N 56°10' E 012°24'63 7.4
2017-Dec-07 14:57N 57°07' E 011°37'3 6.8
2017-Dec-07 14:27N 57°11' E 011°35'3 7.0
2017-Dec-07 14:00N 57°13' E 011°33'4 7.2
2017-Dec-07 13:30N 57°17' E 011°31'4 7.3
2017-Dec-07 13:00N 57°20' E 011°28'3 6.9
2017-Dec-07 12:30N 57°23' E 011°26'3 6.8
2017-Dec-07 12:00N 57°27' E 011°24'4 7.4
2017-Dec-07 11:30N 57°29' E 011°20'4 7.9
2017-Dec-07 11:00N 57°32' E 011°14'4 8.2
2017-Dec-07 10:30N 57°35' E 011°09'4 8.4
2017-Dec-07 10:00N 57°38' E 011°03'4 8.5
2017-Dec-07 09:30N 57°41' E 010°57'4 8.6
2017-Dec-07 09:00N 57°44' E 010°51'4 8.1
2017-Dec-07 08:30N 57°47' E 010°46'611.5
2017-Dec-07 08:00N 57°47' E 010°35'612.0
2017-Dec-07 07:29N 57°45' E 010°24'612.2
2017-Dec-07 06:59N 57°42' E 010°14'612.5
2017-Dec-07 06:30N 57°40' E 010°03'  
Track history (hours):
 
Tides and Currents Weather Stations Pressure Air Temp Water Temp Dewpoint Dewpoint Depression Visibility Wind Speed Wind Dir Waves Ship Positions

Imke

Last reported at 2017-Dec-17 03:34 UTC. Time now 2017-Dec-17 19:55 UTC.
Position N 60°02' E 019°16'.

Length 112 m; draft 6.2 m.

Type: Cargo ship. MMSI: 246535000.

Date/timePositionNaut miles runAvg speedWind from/ knotsBaromVisibWave heightAir tempDewpointWater temp
2017-Dec-17 03:34N 60°02' E 019°16'110.5
2017-Dec-17 03:30N 60°02' E 019°15'510.6
2017-Dec-17 03:00N 60°06' E 019°08'610.5
2017-Dec-17 02:27N 60°11' E 019°01'510.5
2017-Dec-17 02:00N 60°16' E 019°00'610.4
2017-Dec-17 01:26N 60°22' E 018°60'  
2017-Dec-10 17:44N 60°24' E 019°02'210.7
2017-Dec-10 17:30N 60°22' E 019°01'510.6
2017-Dec-10 17:00N 60°16' E 019°02'510.7
2017-Dec-10 16:30N 60°11' E 019°06'510.8
2017-Dec-10 16:00N 60°07' E 019°13'510.7
2017-Dec-10 15:30N 60°03' E 019°20'510.8
2017-Dec-10 15:00N 59°59' E 019°27'510.7
2017-Dec-10 14:30N 59°55' E 019°34'610.8
2017-Dec-10 13:59N 59°50' E 019°41'250 9.9
2017-Dec-09 12:36N 56°00' E 016°35'210.6
2017-Dec-09 12:23N 55°59' E 016°32'410.6
2017-Dec-09 12:00N 55°57' E 016°25'510.3
2017-Dec-09 11:31N 55°55' E 016°17'510.3
2017-Dec-09 11:01N 55°52' E 016°09'510.3
2017-Dec-09 10:31N 55°50' E 016°01'510.4
2017-Dec-09 10:00N 55°47' E 015°53'510.5
2017-Dec-09 09:31N 55°44' E 015°45'510.5
2017-Dec-09 09:01N 55°42' E 015°37'510.6
2017-Dec-09 08:31N 55°39' E 015°29'510.5
2017-Dec-09 08:01N 55°37' E 015°21'1110.6
2017-Dec-09 06:58N 55°31' E 015°04'1610.6
2017-Dec-09 05:27N 55°24' E 014°39'510.4
2017-Dec-09 04:59N 55°20' E 014°33'610.3
2017-Dec-09 04:23N 55°15' E 014°26'410.3
2017-Dec-09 03:59N 55°12' E 014°21'1310.7
2017-Dec-09 02:47N 55°11' E 013°59'2210.6
2017-Dec-09 00:41N 55°13' E 013°20'211.0
2017-Dec-09 00:29N 55°13' E 013°17'510.9
2017-Dec-09 00:00N 55°14' E 013°07'511.0
2017-Dec-08 23:30N 55°14' E 012°58'510.9
2017-Dec-08 23:00N 55°16' E 012°48'511.0
2017-Dec-08 22:30N 55°17' E 012°39'510.9
2017-Dec-08 22:01N 55°19' E 012°30'2 3.1
2017-Dec-08 21:29N 55°19' E 012°27'0 0.0
2017-Dec-08 20:59N 55°19' E 012°27'0 0.0
2017-Dec-08 20:29N 55°19' E 012°27'0 0.0
2017-Dec-08 19:56N 55°19' E 012°27'0 0.0
2017-Dec-08 19:05N 55°19' E 012°27'0 0.0
2017-Dec-08 18:59N 55°19' E 012°27'0 0.0
2017-Dec-08 18:23N 55°19' E 012°27'0 0.0
2017-Dec-08 17:59N 55°19' E 012°27'0 0.0
2017-Dec-08 17:23N 55°19' E 012°27'0 0.0
2017-Dec-08 16:47N 55°19' E 012°27'0 0.0
2017-Dec-08 16:26N 55°19' E 012°27'0 0.0
2017-Dec-08 15:59N 55°19' E 012°27'0 0.0
2017-Dec-08 15:23N 55°19' E 012°27'0 0.0
2017-Dec-08 14:59N 55°19' E 012°27'0 0.0
2017-Dec-08 14:26N 55°19' E 012°27'0 0.0
2017-Dec-08 13:59N 55°19' E 012°27'0 0.0
2017-Dec-08 13:17N 55°19' E 012°27'0 0.0
2017-Dec-08 12:59N 55°19' E 012°27'0 0.0
2017-Dec-08 12:29N 55°19' E 012°27'0 0.0
2017-Dec-08 11:59N 55°19' E 012°27'0 0.0
2017-Dec-08 11:30N 55°19' E 012°27'0 0.0
2017-Dec-08 11:00N 55°19' E 012°27'0 0.0
2017-Dec-08 10:29N 55°19' E 012°27'0 0.0
2017-Dec-08 10:00N 55°19' E 012°27'0 0.0
2017-Dec-08 09:30N 55°19' E 012°27'0 0.0
2017-Dec-08 09:00N 55°19' E 012°27'0 0.0
2017-Dec-08 08:30N 55°19' E 012°27'0 0.0
2017-Dec-08 08:00N 55°19' E 012°27'0 0.0
2017-Dec-08 07:30N 55°19' E 012°27'0 0.3
2017-Dec-08 07:00N 55°19' E 012°28'1 2.8
2017-Dec-08 06:30N 55°20' E 012°29'3 5.1
2017-Dec-08 06:00N 55°23' E 012°32'3 6.1
2017-Dec-08 05:30N 55°25' E 012°35'3 6.6
2017-Dec-08 05:00N 55°28' E 012°38'4 8.2
2017-Dec-08 04:30N 55°31' E 012°42'4 8.5
2017-Dec-08 04:00N 55°36' E 012°42'5 9.7
2017-Dec-08 03:30N 55°40' E 012°41'4 8.6
2017-Dec-08 03:00N 55°45' E 012°41'4 7.9
2017-Dec-08 02:30N 55°49' E 012°42'4 8.4
2017-Dec-08 02:00N 55°53' E 012°40'4 7.9
2017-Dec-08 01:30N 55°57' E 012°39'4 7.9
2017-Dec-08 01:00N 56°00' E 012°40'4 8.4
2017-Dec-08 00:30N 56°04' E 012°37'5 9.4
2017-Dec-08 00:00N 56°07' E 012°30'4 8.9
2017-Dec-07 23:30N 56°10' E 012°24'63 7.4
2017-Dec-07 14:57N 57°07' E 011°37'3 6.8
2017-Dec-07 14:27N 57°11' E 011°35'3 7.0
2017-Dec-07 14:00N 57°13' E 011°33'4 7.2
2017-Dec-07 13:30N 57°17' E 011°31'4 7.3
2017-Dec-07 13:00N 57°20' E 011°28'3 6.9
2017-Dec-07 12:30N 57°23' E 011°26'3 6.8
2017-Dec-07 12:00N 57°27' E 011°24'4 7.4
2017-Dec-07 11:30N 57°29' E 011°20'4 7.9
2017-Dec-07 11:00N 57°32' E 011°14'4 8.2
2017-Dec-07 10:30N 57°35' E 011°09'4 8.4
2017-Dec-07 10:00N 57°38' E 011°03'4 8.5
2017-Dec-07 09:30N 57°41' E 010°57'4 8.6
2017-Dec-07 09:00N 57°44' E 010°51'4 8.1
2017-Dec-07 08:30N 57°47' E 010°46'611.5
2017-Dec-07 08:00N 57°47' E 010°35'612.0
2017-Dec-07 07:29N 57°45' E 010°24'612.2
2017-Dec-07 06:59N 57°42' E 010°14'612.5
2017-Dec-07 06:30N 57°40' E 010°03'  

Dump ship's entire track history